createdAt,value
2018-07-03T00:01:31.781Z,70.40
2018-07-03T00:04:00.014Z,70.30
2018-07-03T00:06:28.301Z,70.30
2018-07-03T00:08:56.518Z,70.30
2018-07-03T00:11:24.981Z,70.30
2018-07-03T00:13:53.907Z,70.10
2018-07-03T00:16:27.463Z,70.20
2018-07-03T00:18:55.757Z,70.20
2018-07-03T00:21:23.974Z,70.20
2018-07-03T00:23:52.205Z,70.20
2018-07-03T00:26:20.696Z,70.10
2018-07-03T00:28:48.909Z,70.10
2018-07-03T00:31:17.150Z,70.10
2018-07-03T00:33:46.274Z,70.10
2018-07-03T00:36:14.550Z,70.10
2018-07-03T00:38:42.790Z,70.10
2018-07-03T00:41:11.418Z,70.10
2018-07-03T00:43:39.657Z,70.10
2018-07-03T00:46:07.883Z,70.10
2018-07-03T00:48:36.501Z,70.00
2018-07-03T00:51:04.773Z,70.00
2018-07-03T00:53:33.002Z,70.00
2018-07-03T00:56:01.478Z,70.00
2018-07-03T00:58:29.706Z,69.90
2018-07-03T01:00:57.978Z,69.90
2018-07-03T01:03:26.286Z,70.00
2018-07-03T01:05:54.528Z,70.00
2018-07-03T01:08:24.094Z,69.90
2018-07-03T01:10:52.398Z,69.90
2018-07-03T01:13:20.714Z,69.90
2018-07-03T01:15:48.935Z,69.90
2018-07-03T01:18:17.231Z,69.90
2018-07-03T01:20:45.470Z,69.80
2018-07-03T01:23:13.686Z,69.80
2018-07-03T01:25:42.648Z,69.90
2018-07-03T01:28:10.926Z,69.80
2018-07-03T01:30:39.171Z,69.80
2018-07-03T01:33:07.474Z,69.80
2018-07-03T01:35:35.715Z,69.80
2018-07-03T01:38:03.967Z,69.80
2018-07-03T01:40:32.304Z,69.80
2018-07-03T01:43:00.546Z,69.80
2018-07-03T01:45:28.761Z,69.80
2018-07-03T01:47:57.751Z,69.70
2018-07-03T01:50:25.985Z,69.70
2018-07-03T01:55:22.477Z,69.80
2018-07-03T01:57:50.703Z,69.70
2018-07-03T02:00:18.930Z,69.70
2018-07-03T02:02:47.208Z,69.70
2018-07-03T02:05:15.434Z,69.60
2018-07-03T02:07:45.393Z,69.70
2018-07-03T02:10:13.647Z,69.60
2018-07-03T02:12:41.882Z,69.60
2018-07-03T02:15:10.141Z,69.60
2018-07-03T02:17:38.377Z,69.80
2018-07-03T02:20:06.597Z,69.50
2018-07-03T02:22:35.161Z,69.50
2018-07-03T02:25:03.427Z,69.50
2018-07-03T02:27:31.662Z,69.50
2018-07-03T02:30:00.162Z,69.50
2018-07-03T02:32:28.392Z,69.50
2018-07-03T02:34:56.636Z,69.40
2018-07-03T02:37:24.939Z,69.50
2018-07-03T02:39:53.181Z,69.50
2018-07-03T02:42:21.477Z,69.50
2018-07-03T02:44:49.761Z,69.40
2018-07-03T02:47:17.999Z,69.40
2018-07-03T02:49:46.228Z,69.50
2018-07-03T02:52:14.550Z,69.40
2018-07-03T02:54:42.759Z,69.40
2018-07-03T02:57:11.048Z,69.40
2018-07-03T02:59:39.349Z,69.40
2018-07-03T03:02:07.591Z,69.40
2018-07-03T03:04:35.820Z,69.40
2018-07-03T03:07:07.563Z,69.40
2018-07-03T03:12:03.857Z,69.30
2018-07-03T03:14:32.553Z,69.30
2018-07-03T03:17:00.851Z,69.20
2018-07-03T03:19:29.083Z,69.20
2018-07-03T03:21:57.462Z,69.30
2018-07-03T03:24:25.701Z,69.10
2018-07-03T03:26:53.935Z,69.20
2018-07-03T03:29:22.837Z,70.10
2018-07-03T03:31:51.085Z,69.20
2018-07-03T03:34:19.302Z,69.10
2018-07-03T03:36:47.782Z,69.10
2018-07-03T03:39:16.002Z,69.00
2018-07-03T03:41:44.251Z,69.10
2018-07-03T03:44:12.536Z,69.00
2018-07-03T03:46:40.796Z,69.00
2018-07-03T03:49:09.015Z,69.00
2018-07-03T03:51:37.733Z,68.90
2018-07-03T03:54:06.171Z,68.90
2018-07-03T03:56:34.390Z,69.00
2018-07-03T03:59:02.660Z,69.00
2018-07-03T04:01:30.908Z,68.80
2018-07-03T04:03:59.129Z,68.90
2018-07-03T04:06:27.947Z,68.80
2018-07-03T04:08:57.627Z,68.90
2018-07-03T04:11:25.862Z,69.30
2018-07-03T04:13:54.119Z,68.80
2018-07-03T04:16:22.359Z,68.80
2018-07-03T04:18:50.598Z,68.80
2018-07-03T04:21:18.866Z,68.80
2018-07-03T04:23:47.094Z,68.80
2018-07-03T04:26:15.326Z,68.70
2018-07-03T04:28:44.354Z,68.80
2018-07-03T04:31:12.597Z,68.70
2018-07-03T04:33:40.818Z,68.70
2018-07-03T04:36:09.478Z,68.80
2018-07-03T04:38:37.725Z,68.90
2018-07-03T04:41:05.985Z,69.00
2018-07-03T04:43:34.519Z,68.80
2018-07-03T04:46:02.746Z,68.80
2018-07-03T04:48:30.994Z,68.70
2018-07-03T04:51:00.035Z,68.70
2018-07-03T04:53:28.303Z,68.60
2018-07-03T04:55:56.486Z,68.60
2018-07-03T04:58:25.178Z,68.60
2018-07-03T05:00:53.415Z,68.60
2018-07-03T05:03:21.646Z,68.60
2018-07-03T05:05:50.442Z,68.60
2018-07-03T05:08:20.920Z,68.50
2018-07-03T05:13:17.325Z,68.60
2018-07-03T05:15:45.656Z,68.50
2018-07-03T05:18:13.892Z,68.50
2018-07-03T05:20:42.462Z,68.50
2018-07-03T05:23:10.713Z,68.60
2018-07-03T05:25:38.953Z,68.60
2018-07-03T05:28:07.806Z,68.50
2018-07-03T05:30:36.090Z,68.80
2018-07-03T05:33:04.334Z,69.10
2018-07-03T05:35:33.567Z,69.30
2018-07-03T05:38:01.834Z,69.50
2018-07-03T05:40:30.092Z,69.80
2018-07-03T05:42:58.982Z,69.90
2018-07-03T05:45:27.173Z,70.10
2018-07-03T05:47:55.406Z,70.30
2018-07-03T05:50:25.458Z,70.50
2018-07-03T05:52:53.701Z,70.90
2018-07-03T05:55:21.932Z,71.20
2018-07-03T05:57:50.230Z,71.10
2018-07-03T06:00:18.472Z,70.80
2018-07-03T06:02:46.736Z,70.80
2018-07-03T06:05:15.034Z,71.30
2018-07-03T06:07:45.818Z,71.70
2018-07-03T06:10:14.070Z,71.50
2018-07-03T06:12:42.346Z,70.80
2018-07-03T06:15:10.619Z,70.80
2018-07-03T06:17:38.904Z,70.90
2018-07-03T06:20:08.694Z,71.10
2018-07-03T06:22:36.927Z,71.20
2018-07-03T06:25:05.192Z,71.60
2018-07-03T06:27:34.434Z,71.60
2018-07-03T06:30:02.755Z,71.70
2018-07-03T06:32:30.974Z,71.70
2018-07-03T06:34:59.679Z,71.80
2018-07-03T06:37:27.995Z,71.90
2018-07-03T06:39:56.158Z,72.10
2018-07-03T06:42:24.714Z,72.10
2018-07-03T06:44:52.966Z,72.10
2018-07-03T06:47:21.231Z,72.10
2018-07-03T06:49:49.644Z,72.20
2018-07-03T06:52:17.871Z,72.30
2018-07-03T06:54:46.085Z,72.30
2018-07-03T06:57:14.572Z,72.30
2018-07-03T06:59:43.022Z,72.20
2018-07-03T07:02:11.537Z,72.30
2018-07-03T07:04:40.231Z,72.30
2018-07-03T07:07:08.474Z,72.40
2018-07-03T07:09:39.049Z,72.50
2018-07-03T07:12:07.358Z,72.30
2018-07-03T07:14:35.605Z,72.50
2018-07-03T07:17:03.846Z,72.60
2018-07-03T07:19:32.125Z,72.60
2018-07-03T07:22:00.351Z,72.70
2018-07-03T07:24:28.599Z,72.70
2018-07-03T07:26:57.590Z,73.60
2018-07-03T07:29:25.824Z,73.10
2018-07-03T07:31:54.052Z,73.20
2018-07-03T07:34:22.933Z,73.30
2018-07-03T07:36:51.179Z,73.50
2018-07-03T07:39:19.435Z,73.60
2018-07-03T07:41:47.912Z,73.80
2018-07-03T07:44:16.178Z,73.90
2018-07-03T07:46:44.406Z,74.00
2018-07-03T07:49:13.301Z,74.10
2018-07-03T07:51:41.554Z,74.20
2018-07-03T07:54:09.831Z,74.20
2018-07-03T07:56:38.538Z,74.20
2018-07-03T07:59:06.854Z,74.30
2018-07-03T08:01:35.170Z,74.30
2018-07-03T08:04:03.896Z,74.30
2018-07-03T08:06:32.645Z,74.50
2018-07-03T08:09:04.533Z,74.40
2018-07-03T08:11:39.480Z,74.30
2018-07-03T08:14:08.058Z,74.50
2018-07-03T08:16:36.301Z,74.60
2018-07-03T08:19:04.660Z,74.60
2018-07-03T08:21:33.311Z,74.40
2018-07-03T08:24:01.541Z,74.50
2018-07-03T08:26:29.799Z,74.60
2018-07-03T08:28:58.858Z,74.70
2018-07-03T08:31:27.160Z,74.80
2018-07-03T08:33:55.410Z,74.90
2018-07-03T08:36:23.704Z,75.00
2018-07-03T08:38:51.945Z,75.20
2018-07-03T08:41:20.222Z,75.80
2018-07-03T08:43:48.500Z,75.80
2018-07-03T08:46:16.771Z,76.00
2018-07-03T08:48:45.062Z,76.40
2018-07-03T08:51:14.965Z,76.40
2018-07-03T08:53:43.214Z,76.80
2018-07-03T08:56:11.475Z,99.90
2018-07-03T08:58:40.622Z,99.90
2018-07-03T09:01:08.859Z,99.90
2018-07-03T09:03:37.102Z,99.90
2018-07-03T09:06:05.358Z,91.30
2018-07-03T09:08:35.166Z,79.30
2018-07-03T09:11:03.651Z,81.80
2018-07-03T09:13:31.891Z,74.80
2018-07-03T09:16:00.115Z,68.90
2018-07-03T09:18:28.787Z,61.60
2018-07-03T09:20:57.053Z,58.70
2018-07-03T09:23:25.295Z,58.10
2018-07-03T09:25:54.028Z,57.80
2018-07-03T09:28:22.258Z,57.50
2018-07-03T09:30:50.493Z,61.60
2018-07-03T09:33:19.065Z,66.10
2018-07-03T09:35:47.305Z,68.60
2018-07-03T09:38:15.565Z,69.70
2018-07-03T09:40:43.830Z,71.00
2018-07-03T09:43:12.057Z,70.80
2018-07-03T09:45:40.282Z,71.60
2018-07-03T09:48:08.822Z,73.00
2018-07-03T09:50:37.126Z,72.70
2018-07-03T09:53:05.515Z,70.80
2018-07-03T09:55:33.804Z,70.40
2018-07-03T09:58:02.035Z,69.60
2018-07-03T10:00:35.654Z,69.80
2018-07-03T10:03:03.898Z,68.60
2018-07-03T10:05:32.121Z,68.50
2018-07-03T10:08:02.102Z,68.10
2018-07-03T10:10:31.412Z,68.20
2018-07-03T10:12:59.840Z,67.50
2018-07-03T10:15:28.089Z,66.60
2018-07-03T10:17:56.330Z,70.20
2018-07-03T10:20:24.770Z,69.60
2018-07-03T10:22:53.108Z,64.40
2018-07-03T10:25:21.374Z,67.90
2018-07-03T10:27:50.775Z,65.80
2018-07-03T10:30:19.001Z,67.10
2018-07-03T10:32:47.240Z,67.10
2018-07-03T10:35:15.609Z,67.70
2018-07-03T10:37:43.938Z,70.60
2018-07-03T10:40:12.179Z,70.70
2018-07-03T10:42:40.854Z,72.40
2018-07-03T10:45:09.111Z,74.10
2018-07-03T10:47:37.418Z,72.70
2018-07-03T10:50:07.018Z,76.20
2018-07-03T10:52:35.257Z,77.60
2018-07-03T10:55:03.503Z,78.60
2018-07-03T11:00:00.231Z,77.20
2018-07-03T11:02:28.462Z,78.70
2018-07-03T11:04:56.828Z,79.40
2018-07-03T11:07:25.067Z,80.70
2018-07-03T11:09:53.291Z,74.10
2018-07-03T11:12:23.262Z,78.20
2018-07-03T11:14:51.564Z,79.40
2018-07-03T11:17:19.795Z,81.60
2018-07-03T11:19:48.701Z,80.50
2018-07-03T11:22:16.875Z,81.00
2018-07-03T11:24:45.114Z,79.70
2018-07-03T11:27:13.411Z,79.70
2018-07-03T11:29:41.667Z,81.60
2018-07-03T11:32:09.986Z,83.00
2018-07-03T11:34:38.494Z,83.50
2018-07-03T11:37:07.094Z,83.30
2018-07-03T11:39:35.317Z,82.20
2018-07-03T11:42:03.798Z,82.00
2018-07-03T11:44:32.043Z,81.80
2018-07-03T11:47:00.450Z,81.50
2018-07-03T11:49:28.713Z,78.30
2018-07-03T11:51:56.951Z,76.40
2018-07-03T11:54:25.178Z,77.30
2018-07-03T11:56:53.858Z,77.10
2018-07-03T11:59:22.113Z,77.20
2018-07-03T12:01:50.351Z,76.10
2018-07-03T12:04:18.804Z,75.70
2018-07-03T12:06:47.051Z,73.20
2018-07-03T12:09:17.402Z,73.30
2018-07-03T12:11:45.982Z,73.10
2018-07-03T12:14:14.341Z,72.00
2018-07-03T12:16:42.623Z,72.10
2018-07-03T12:19:10.928Z,71.90
2018-07-03T12:21:39.145Z,72.10
2018-07-03T12:24:07.393Z,71.00
2018-07-03T12:26:36.459Z,71.10
2018-07-03T12:29:05.481Z,71.20
2018-07-03T12:31:33.658Z,71.30
2018-07-03T12:34:02.219Z,71.60
2018-07-03T12:36:30.456Z,72.00
2018-07-03T12:38:58.690Z,71.90
2018-07-03T12:41:27.357Z,71.60
2018-07-03T12:43:55.611Z,71.90
2018-07-03T12:46:23.914Z,69.10
2018-07-03T12:48:53.313Z,67.40
2018-07-03T12:51:21.578Z,65.10
2018-07-03T12:53:49.794Z,65.60
2018-07-03T12:56:18.554Z,66.70
2018-07-03T12:58:46.787Z,67.70
2018-07-03T13:01:15.007Z,67.60
2018-07-03T13:03:43.313Z,67.70
2018-07-03T13:08:41.743Z,68.20
2018-07-03T13:11:10.441Z,68.30
2018-07-03T13:13:38.716Z,68.80
2018-07-03T13:16:07.326Z,69.70
2018-07-03T13:18:35.583Z,69.10
2018-07-03T13:21:03.826Z,69.10
2018-07-03T13:23:32.781Z,69.80
2018-07-03T13:26:01.051Z,70.40
2018-07-03T13:28:29.309Z,70.20
2018-07-03T13:30:57.622Z,70.20
2018-07-03T13:33:25.868Z,70.30
2018-07-03T13:35:54.089Z,70.00
2018-07-03T13:38:22.834Z,70.10
2018-07-03T13:40:51.075Z,70.20
2018-07-03T13:43:19.301Z,70.30
2018-07-03T13:45:47.719Z,70.40
2018-07-03T13:48:16.036Z,70.40
2018-07-03T13:50:44.191Z,70.50
2018-07-03T13:53:12.810Z,70.60
2018-07-03T13:55:41.081Z,70.60
2018-07-03T13:58:09.330Z,70.70
2018-07-03T14:00:37.626Z,70.90
2018-07-03T14:03:05.861Z,70.90
2018-07-03T14:05:34.089Z,71.00
2018-07-03T14:08:04.621Z,71.00
2018-07-03T14:10:32.838Z,71.10
2018-07-03T14:13:02.199Z,71.20
2018-07-03T14:15:30.678Z,71.30
2018-07-03T14:17:59.015Z,71.30
2018-07-03T14:20:27.271Z,71.40
2018-07-03T14:22:55.874Z,71.40
2018-07-03T14:25:24.105Z,71.50
2018-07-03T14:27:53.356Z,71.60
2018-07-03T14:30:22.404Z,71.70
2018-07-03T14:32:50.642Z,71.70
2018-07-03T14:35:18.866Z,71.70
2018-07-03T14:37:47.318Z,71.70
2018-07-03T14:40:15.563Z,71.80
2018-07-03T14:42:43.864Z,71.90
2018-07-03T14:45:12.665Z,71.90
2018-07-03T14:47:40.958Z,72.00
2018-07-03T14:50:09.197Z,72.00
2018-07-03T14:52:38.829Z,72.10
2018-07-03T14:55:07.068Z,72.10
2018-07-03T14:57:35.313Z,72.20
2018-07-03T15:00:04.606Z,72.20
2018-07-03T15:02:32.870Z,72.20
2018-07-03T15:05:01.207Z,72.30
2018-07-03T15:07:32.487Z,72.30
2018-07-03T15:10:00.814Z,72.30
2018-07-03T15:12:29.056Z,72.40
2018-07-03T15:14:57.500Z,72.40
2018-07-03T15:17:25.713Z,72.40
2018-07-03T15:19:55.477Z,73.20
2018-07-03T15:22:23.882Z,72.50
2018-07-03T15:24:52.415Z,72.50
2018-07-03T15:27:20.650Z,72.50
2018-07-03T15:29:49.737Z,72.50
2018-07-03T15:32:18.042Z,72.50
2018-07-03T15:34:46.265Z,72.50
2018-07-03T15:37:14.671Z,72.60
2018-07-03T15:39:42.936Z,72.70
2018-07-03T15:42:11.189Z,72.60
2018-07-03T15:45:15.963Z,72.70
2018-07-03T15:47:44.237Z,72.80
2018-07-03T15:50:13.406Z,72.70
2018-07-03T15:52:41.707Z,72.80
2018-07-03T15:55:10.610Z,72.80
2018-07-03T15:57:39.021Z,72.80
2018-07-03T16:00:09.526Z,72.80
2018-07-03T16:02:37.866Z,73.70
2018-07-03T16:05:19.377Z,72.80
2018-07-03T16:09:13.801Z,72.80
2018-07-03T16:11:42.077Z,72.90
2018-07-03T16:14:11.219Z,72.90
2018-07-03T16:16:39.666Z,73.00
2018-07-03T16:21:41.446Z,72.90
2018-07-03T16:26:38.773Z,73.00
2018-07-03T16:29:09.045Z,73.00
2018-07-03T16:31:37.279Z,73.00
2018-07-03T16:34:06.279Z,73.10
2018-07-03T16:36:34.791Z,73.00
2018-07-03T16:39:03.169Z,73.00
2018-07-03T16:41:31.447Z,73.10
2018-07-03T16:43:59.718Z,72.50
2018-07-03T16:46:27.961Z,73.10
2018-07-03T16:48:56.962Z,73.20
2018-07-03T16:51:25.196Z,73.20
2018-07-03T16:53:53.431Z,73.30
2018-07-03T16:56:21.714Z,73.30
2018-07-03T17:01:18.120Z,73.30
2018-07-03T17:03:46.622Z,73.20
2018-07-03T17:06:14.934Z,73.20
2018-07-03T17:08:45.546Z,73.20
2018-07-03T17:11:14.154Z,73.30
2018-07-03T17:13:42.428Z,73.20
2018-07-03T17:16:10.643Z,73.20
2018-07-03T17:18:43.559Z,73.20
2018-07-03T17:21:11.798Z,73.20
2018-07-03T17:23:40.023Z,73.20
2018-07-03T17:26:09.213Z,73.20
2018-07-03T17:28:37.488Z,73.20
2018-07-03T17:31:05.922Z,73.20
2018-07-03T17:33:34.231Z,73.20
2018-07-03T17:36:02.443Z,73.20
2018-07-03T17:38:31.103Z,73.20
2018-07-03T17:42:09.471Z,73.20
2018-07-03T17:44:43.458Z,73.90
2018-07-03T17:47:12.044Z,73.20
2018-07-03T17:49:40.813Z,73.20
2018-07-03T17:52:09.423Z,73.40
2018-07-03T17:54:38.210Z,73.90
2018-07-03T17:57:06.512Z,74.10
2018-07-03T17:59:34.807Z,73.70
2018-07-03T18:02:03.090Z,74.00
2018-07-03T18:04:31.586Z,72.90
2018-07-03T18:06:59.856Z,72.50
2018-07-03T18:09:29.679Z,73.40
2018-07-03T18:11:57.938Z,74.80
2018-07-03T18:14:26.189Z,74.70
2018-07-03T18:16:54.721Z,74.40
2018-07-03T18:19:28.419Z,75.30
2018-07-03T18:21:56.719Z,75.50
2018-07-03T18:24:24.991Z,75.80
2018-07-03T18:26:53.255Z,75.40
2018-07-03T18:29:22.149Z,75.50
2018-07-03T18:31:50.406Z,74.40
2018-07-03T18:34:18.880Z,74.30
2018-07-03T18:36:47.494Z,74.20
2018-07-03T18:39:15.776Z,74.10
2018-07-03T18:41:44.064Z,74.10
2018-07-03T18:44:12.618Z,74.20
2018-07-03T18:46:40.872Z,74.30
2018-07-03T18:49:09.332Z,74.40
2018-07-03T18:51:37.891Z,74.70
2018-07-03T18:54:06.133Z,74.90
2018-07-03T18:56:34.684Z,74.60
2018-07-03T18:59:03.059Z,74.80
2018-07-03T19:01:31.380Z,75.20
2018-07-03T19:03:59.683Z,75.40
2018-07-03T19:06:28.558Z,75.70
2018-07-03T19:08:59.391Z,76.10
2018-07-03T19:11:27.655Z,75.40
2018-07-03T19:13:55.991Z,75.30
2018-07-03T19:16:24.309Z,75.50
2018-07-03T19:18:52.535Z,75.70
2018-07-03T19:21:21.075Z,75.60
2018-07-03T19:23:49.343Z,75.70
2018-07-03T19:26:17.656Z,75.90
2018-07-03T19:28:46.847Z,76.00
2018-07-03T19:31:15.109Z,76.20
2018-07-03T19:33:43.520Z,76.30
2018-07-03T19:38:39.946Z,76.60
2018-07-03T19:41:08.264Z,76.40
2018-07-03T19:43:37.880Z,76.70
2018-07-03T19:46:06.577Z,76.90
2018-07-03T19:48:34.934Z,77.10
2018-07-03T19:51:03.816Z,77.50
2018-07-03T19:53:32.043Z,77.60
2018-07-03T19:56:00.585Z,77.30
2018-07-03T19:58:29.245Z,77.30
2018-07-03T20:00:57.602Z,77.30
2018-07-03T20:03:25.863Z,77.30
2018-07-03T20:05:54.246Z,77.30
2018-07-03T20:08:24.884Z,77.20
2018-07-03T20:10:53.128Z,77.50
2018-07-03T20:13:21.955Z,77.80
2018-07-03T20:15:50.239Z,77.60
2018-07-03T20:18:18.523Z,77.60
2018-07-03T20:20:47.409Z,77.50
2018-07-03T20:23:15.675Z,77.50
2018-07-03T20:25:44.043Z,78.20
2018-07-03T20:28:12.651Z,78.20
2018-07-03T20:30:40.898Z,78.10
2018-07-03T20:33:09.174Z,78.10
2018-07-03T20:35:37.671Z,78.00
2018-07-03T20:38:07.045Z,77.90
2018-07-03T20:40:53.654Z,78.00
2018-07-03T20:43:22.219Z,78.00
2018-07-03T20:45:50.538Z,77.90
2018-07-03T20:48:19.129Z,78.00
2018-07-03T20:50:47.392Z,78.00
2018-07-03T20:53:15.631Z,77.80
2018-07-03T20:55:44.288Z,77.70
2018-07-03T20:58:12.577Z,77.70
2018-07-03T21:00:40.875Z,77.70
2018-07-03T21:03:09.815Z,77.60
2018-07-03T21:05:38.165Z,77.60
2018-07-03T21:08:08.498Z,77.50
2018-07-03T21:10:37.048Z,77.50
2018-07-03T21:13:05.319Z,77.40
2018-07-03T21:15:33.591Z,77.30
2018-07-03T21:18:01.925Z,77.30
2018-07-03T21:20:30.186Z,77.30
2018-07-03T21:22:58.421Z,77.20
2018-07-03T21:25:27.092Z,77.20
2018-07-03T21:27:55.351Z,77.20
2018-07-03T21:30:23.602Z,77.10
2018-07-03T21:32:52.311Z,77.10
2018-07-03T21:35:20.550Z,77.00
2018-07-03T21:37:48.787Z,77.00
2018-07-03T21:40:17.131Z,77.00
2018-07-03T21:42:45.389Z,77.00
2018-07-03T21:45:13.652Z,76.90
2018-07-03T21:47:42.489Z,76.90
2018-07-03T21:50:10.757Z,76.80
2018-07-03T21:52:39.013Z,76.80
2018-07-03T21:55:07.626Z,76.70
2018-07-03T21:57:35.904Z,76.70
2018-07-03T22:00:05.453Z,76.60
2018-07-03T22:02:33.736Z,76.60
2018-07-03T22:05:01.966Z,76.60
2018-07-03T22:07:31.462Z,76.60
2018-07-03T22:09:59.715Z,76.50
2018-07-03T22:12:27.958Z,76.40
2018-07-03T22:17:24.253Z,76.40
2018-07-03T22:19:52.503Z,76.30
2018-07-03T22:22:20.818Z,76.30
2018-07-03T22:24:49.059Z,76.20
2018-07-03T22:27:17.315Z,76.20
2018-07-03T22:29:46.142Z,76.20
2018-07-03T22:32:14.383Z,76.20
2018-07-03T22:34:42.634Z,76.10
2018-07-03T22:37:10.937Z,76.10
2018-07-03T22:39:39.197Z,76.00
2018-07-03T22:42:07.404Z,76.00
2018-07-03T22:44:35.708Z,76.60
2018-07-03T22:47:04.070Z,75.90
2018-07-03T22:49:32.326Z,75.90
2018-07-03T22:52:01.264Z,75.80
2018-07-03T22:54:29.513Z,75.80
2018-07-03T22:56:57.758Z,75.80
2018-07-03T22:59:26.299Z,75.70
2018-07-03T23:01:54.542Z,75.60
2018-07-03T23:04:22.780Z,75.60
2018-07-03T23:06:51.097Z,75.60
2018-07-03T23:09:21.255Z,75.50
2018-07-03T23:11:49.519Z,75.40
2018-07-03T23:14:18.010Z,75.40
2018-07-03T23:16:46.259Z,75.50
2018-07-03T23:19:14.502Z,75.40
2018-07-03T23:21:43.047Z,75.40
2018-07-03T23:24:11.308Z,75.30
2018-07-03T23:26:39.574Z,75.20
2018-07-03T23:29:08.794Z,75.20
2018-07-03T23:31:37.052Z,75.10
2018-07-03T23:34:05.334Z,75.10
2018-07-03T23:36:33.614Z,75.10
2018-07-03T23:39:01.878Z,75.10
2018-07-03T23:41:30.146Z,75.00
2018-07-03T23:43:58.423Z,75.00
2018-07-03T23:46:37.911Z,75.00
2018-07-03T23:49:18.351Z,74.90
2018-07-03T23:51:58.036Z,74.90
2018-07-03T23:54:37.946Z,74.90
2018-07-03T23:57:17.574Z,74.80
2018-07-03T23:59:57.519Z,74.80
